Time;durP1;ratioP1;P1;durP2;ratioP2;P2;SDS_P1;SDS_P2;PMS_P1;PMS_P2;Temp;Humidity;BMP_temperature;BMP_pressure;BME280_temperature;BME280_humidity;BME280_pressure;Samples;Min_cycle;Max_cycle;Signal;HPM_P1;HPM_P2
2022/05/02 00:01:34;;;;;;;;;;;;;;;5.58;69.03;100896.14;85479;1339;23114;-79
2022/05/02 00:03:39;;;;;;;;;;;;;;;5.56;68.95;100897.88;85467;1339;23102;-79
2022/05/02 00:05:47;;;;;;;;;;;;;;;5.55;69.04;100899.45;85462;1339;22478;-77
2022/05/02 00:07:54;;;;;;;;;;;;;;;5.54;68.78;100898.60;85464;1339;22457;-76
2022/05/02 00:10:02;;;;;;;;;;;;;;;5.52;68.89;100898.27;85466;1339;22473;-77
2022/05/02 00:12:10;;;;;;;;;;;;;;;5.50;69.10;100897.77;85474;1338;22442;-79
2022/05/02 00:14:19;;;;;;;;;;;;;;;5.48;68.77;100897.10;85245;1342;23235;-78
2022/05/02 00:16:24;;;;;;;;;;;;;;;5.46;69.19;100894.52;85461;1339;23211;-76
2022/05/02 00:18:28;;;;;;;;;;;;;;;5.45;69.21;100896.41;85471;1339;23178;-76
2022/05/02 00:20:34;;;;;;;;;;;;;;;5.46;69.25;100894.33;85466;1339;22483;-76
2022/05/02 00:22:40;;;;;;;;;;;;;;;5.46;69.47;100897.80;85470;1339;22570;-76
2022/05/02 00:24:44;;;;;;;;;;;;;;;5.48;69.14;100895.71;85456;1340;23191;-76
2022/05/02 00:26:49;;;;;;;;;;;;;;;5.49;69.39;100892.77;85481;1340;23303;-79
2022/05/02 00:28:56;;;;;;;;;;;;;;;5.51;69.61;100891.87;85472;1339;23181;-78
2022/05/02 00:31:01;;;;;;;;;;;;;;;5.55;69.73;100888.55;85473;1338;23198;-79
2022/05/02 00:33:06;;;;;;;;;;;;;;;5.59;69.61;100890.41;85430;1341;23322;-79
2022/05/02 00:35:11;;;;;;;;;;;;;;;5.62;69.96;100891.93;84743;1338;1002392;-78
2022/05/02 00:37:17;;;;;;;;;;;;;;;5.68;69.93;100896.73;85444;1339;22540;-77
2022/05/02 00:39:21;;;;;;;;;;;;;;;5.75;69.97;100891.81;85470;1339;22487;-76
2022/05/02 00:41:26;;;;;;;;;;;;;;;5.82;70.03;100892.09;84747;1339;1002517;-79
2022/05/02 00:43:30;;;;;;;;;;;;;;;5.87;70.04;100893.77;85466;1339;22457;-78
2022/05/02 00:45:38;;;;;;;;;;;;;;;5.90;69.78;100892.20;85461;1339;22441;-79
2022/05/02 00:47:43;;;;;;;;;;;;;;;5.94;69.82;100887.15;85473;1341;23228;-79
2022/05/02 00:49:48;;;;;;;;;;;;;;;5.97;69.46;100888.85;85466;1339;22537;-79
2022/05/02 00:51:55;;;;;;;;;;;;;;;6.01;69.58;100887.08;85466;1339;22577;-79
2022/05/02 00:54:00;;;;;;;;;;;;;;;6.06;69.59;100883.90;84743;1339;1002123;-79
2022/05/02 00:56:07;;;;;;;;;;;;;;;6.09;69.44;100883.69;85473;1338;22495;-79
2022/05/02 00:58:12;;;;;;;;;;;;;;;6.11;69.44;100888.02;85463;1339;22574;-79
2022/05/02 01:00:17;;;;;;;;;;;;;;;6.10;69.50;100889.40;85438;1339;23069;-79
2022/05/02 01:02:22;;;;;;;;;;;;;;;6.07;69.57;100890.30;85480;1339;23124;-79
2022/05/02 01:04:26;;;;;;;;;;;;;;;6.05;69.44;100890.14;85457;1339;22481;-79
2022/05/02 01:08:54;;;;;;;;;;;;;;;5.99;69.63;100885.36;85405;1339;22580;-78
2022/05/02 01:10:59;;;;;;;;;;;;;;;6.00;69.62;100884.30;85466;1339;23253;-77
2022/05/02 01:13:13;;;;;;;;;;;;;;;5.98;69.77;100886.93;85444;1340;23292;-76
2022/05/02 01:15:18;;;;;;;;;;;;;;;5.94;69.73;100885.42;85470;1339;22502;-77
2022/05/02 01:17:22;;;;;;;;;;;;;;;5.89;69.33;100883.03;84748;1341;1002490;-79
2022/05/02 01:19:27;;;;;;;;;;;;;;;5.84;69.71;100883.77;85303;1341;23077;-79
2022/05/02 01:21:32;;;;;;;;;;;;;;;5.81;70.05;100882.07;85474;1341;23138;-78
2022/05/02 01:23:36;;;;;;;;;;;;;;;5.79;69.74;100882.42;85463;1338;23286;-79
2022/05/02 01:25:41;;;;;;;;;;;;;;;5.76;70.11;100880.39;85455;1339;22436;-79
2022/05/02 01:27:45;;;;;;;;;;;;;;;5.73;70.31;100878.68;85461;1340;22630;-79
2022/05/02 01:29:50;;;;;;;;;;;;;;;5.68;70.18;100882.70;85457;1339;22593;-79
2022/05/02 01:31:54;;;;;;;;;;;;;;;5.64;70.35;100881.54;85465;1340;22575;-78
2022/05/02 01:34:00;;;;;;;;;;;;;;;5.61;70.17;100882.95;85472;1339;23242;-78
2022/05/02 01:36:05;;;;;;;;;;;;;;;5.56;70.05;100884.55;84748;1339;1002574;-77
2022/05/02 01:38:09;;;;;;;;;;;;;;;5.52;70.22;100884.95;85457;1341;22545;-77
2022/05/02 01:40:17;;;;;;;;;;;;;;;5.48;70.25;100882.39;85457;1341;22582;-77
2022/05/02 01:42:25;;;;;;;;;;;;;;;5.44;70.53;100879.48;85487;1339;23213;-78
2022/05/02 01:44:29;;;;;;;;;;;;;;;5.39;70.47;100880.38;85460;1341;22532;-78
2022/05/02 01:46:34;;;;;;;;;;;;;;;5.34;70.26;100879.39;85487;1340;23114;-78
2022/05/02 01:48:38;;;;;;;;;;;;;;;5.30;70.51;100876.14;85449;1339;22754;-77
2022/05/02 01:50:43;;;;;;;;;;;;;;;5.26;70.72;100877.20;85457;1339;23125;-78
2022/05/02 01:52:48;;;;;;;;;;;;;;;5.27;70.43;100874.78;85431;1339;23188;-77
2022/05/02 01:54:53;;;;;;;;;;;;;;;5.27;70.66;100877.36;85462;1339;23190;-76
2022/05/02 01:56:57;;;;;;;;;;;;;;;5.25;70.56;100876.34;85468;1339;23201;-77
2022/05/02 01:59:02;;;;;;;;;;;;;;;5.25;70.62;100879.11;85473;1339;22497;-76
2022/05/02 02:01:09;;;;;;;;;;;;;;;5.26;70.83;100878.92;85432;1339;22507;-77
2022/05/02 02:03:14;;;;;;;;;;;;;;;5.28;70.98;100883.08;85459;1339;22551;-77
2022/05/02 02:07:41;;;;;;;;;;;;;;;5.32;70.88;100886.15;85434;1341;22509;-77
2022/05/02 02:09:45;;;;;;;;;;;;;;;5.33;71.02;100885.98;85452;1339;22558;-78
2022/05/02 02:11:51;;;;;;;;;;;;;;;5.34;70.97;100889.08;85474;1341;22564;-77
2022/05/02 02:13:56;;;;;;;;;;;;;;;5.36;70.98;100886.81;85450;1339;23258;-76
2022/05/02 02:16:00;;;;;;;;;;;;;;;5.38;71.07;100886.63;85357;1342;23134;-76
2022/05/02 02:18:05;;;;;;;;;;;;;;;5.38;71.04;100885.25;85447;1340;23290;-77
2022/05/02 02:20:11;;;;;;;;;;;;;;;5.38;70.92;100885.59;85446;1339;22465;-76
2022/05/02 02:22:19;;;;;;;;;;;;;;;5.36;70.92;100883.52;85447;1338;22478;-79
2022/05/02 02:24:23;;;;;;;;;;;;;;;5.33;70.86;100880.09;85446;1338;23240;-79
2022/05/02 02:26:29;;;;;;;;;;;;;;;5.31;70.74;100884.25;85407;1342;23145;-78
2022/05/02 02:28:34;;;;;;;;;;;;;;;5.29;70.68;100886.88;85456;1338;22454;-79
2022/05/02 02:30:38;;;;;;;;;;;;;;;5.27;70.61;100888.63;85447;1339;23328;-79
2022/05/02 02:32:43;;;;;;;;;;;;;;;5.24;70.88;100891.40;85458;1339;22514;-77
2022/05/02 02:34:48;;;;;;;;;;;;;;;5.19;70.54;100887.64;85461;1339;23037;-77
2022/05/02 02:36:55;;;;;;;;;;;;;;;5.14;70.66;100889.22;85455;1338;23069;-78
2022/05/02 02:39:00;;;;;;;;;;;;;;;5.08;70.87;100887.20;85445;1341;22517;-79
2022/05/02 02:41:05;;;;;;;;;;;;;;;5.05;70.97;100885.48;85445;1342;22602;-78
2022/05/02 02:43:12;;;;;;;;;;;;;;;5.02;71.08;100882.23;85308;1342;23214;-79
2022/05/02 02:45:20;;;;;;;;;;;;;;;4.97;70.94;100880.37;85451;1339;22512;-79
2022/05/02 02:47:29;;;;;;;;;;;;;;;4.93;71.00;100878.32;85445;1339;22992;-79
2022/05/02 02:49:33;;;;;;;;;;;;;;;4.89;71.19;100880.77;85479;1339;23210;-79
2022/05/02 02:51:41;;;;;;;;;;;;;;;4.85;71.30;100879.23;85450;1339;23047;-77
2022/05/02 02:53:48;;;;;;;;;;;;;;;4.81;71.24;100880.30;85460;1339;23132;-77
2022/05/02 02:55:53;;;;;;;;;;;;;;;4.77;71.38;100880.67;84764;1339;1003006;-79
2022/05/02 02:58:00;;;;;;;;;;;;;;;4.73;71.93;100882.95;85467;1339;22482;-79
2022/05/02 03:00:07;;;;;;;;;;;;;;;4.70;71.53;100882.61;85471;1339;23080;-79
2022/05/02 03:02:12;;;;;;;;;;;;;;;4.66;71.74;100883.48;85454;1341;22458;-79
2022/05/02 03:06:42;;;;;;;;;;;;;;;4.59;71.65;100879.90;85452;1339;22546;-77
2022/05/02 03:08:47;;;;;;;;;;;;;;;4.56;72.04;100883.20;85445;1342;23136;-77
2022/05/02 03:10:54;;;;;;;;;;;;;;;4.53;72.08;100884.08;85467;1339;22472;-77
2022/05/02 03:12:59;;;;;;;;;;;;;;;4.51;72.12;100886.17;85457;1338;23207;-77
2022/05/02 03:15:05;;;;;;;;;;;;;;;4.49;72.18;100889.98;85440;1339;22765;-77
2022/05/02 03:17:12;;;;;;;;;;;;;;;4.46;72.35;100894.14;85469;1340;22674;-79
2022/05/02 03:19:20;;;;;;;;;;;;;;;4.43;72.76;100891.73;85463;1339;23311;-79
2022/05/02 03:21:25;;;;;;;;;;;;;;;4.38;72.59;100894.01;85448;1342;22597;-77
2022/05/02 03:23:30;;;;;;;;;;;;;;;4.35;72.65;100894.54;85494;1336;23168;-76
2022/05/02 03:25:37;;;;;;;;;;;;;;;4.33;72.89;100891.59;85558;1341;23318;-77
2022/05/02 03:27:42;;;;;;;;;;;;;;;4.32;72.80;100890.04;85646;1339;23128;-76
2022/05/02 03:29:47;;;;;;;;;;;;;;;4.31;73.24;100891.44;85648;1339;23177;-77
2022/05/02 03:31:52;;;;;;;;;;;;;;;4.31;73.14;100886.94;84936;1336;1002564;-79
2022/05/02 03:34:00;;;;;;;;;;;;;;;4.32;73.34;100890.91;85633;1337;22435;-79
2022/05/02 03:36:06;;;;;;;;;;;;;;;4.34;73.54;100887.27;85558;1339;22461;-76
2022/05/02 03:38:11;;;;;;;;;;;;;;;4.37;73.49;100889.16;85563;1341;22597;-76
2022/05/02 03:40:17;;;;;;;;;;;;;;;4.41;73.65;100888.11;85553;1339;23108;-77
2022/05/02 03:42:23;;;;;;;;;;;;;;;4.46;73.78;100887.75;85581;1340;23247;-77
2022/05/02 03:44:30;;;;;;;;;;;;;;;4.51;73.87;100889.45;85475;1341;22588;-77
2022/05/02 03:46:35;;;;;;;;;;;;;;;4.57;73.99;100886.30;85563;1338;23305;-77
2022/05/02 03:48:44;;;;;;;;;;;;;;;4.64;74.08;100888.52;85583;1336;22494;-77
2022/05/02 03:50:49;;;;;;;;;;;;;;;4.75;74.17;100888.98;85586;1339;22550;-79
2022/05/02 03:52:53;;;;;;;;;;;;;;;4.95;74.33;100893.17;85553;1339;23137;-79
2022/05/02 03:54:58;;;;;;;;;;;;;;;5.31;74.93;100890.30;85548;1339;23165;-78
2022/05/02 03:57:06;;;;;;;;;;;;;;;5.62;74.65;100887.98;85471;1340;23151;-78
2022/05/02 03:59:11;;;;;;;;;;;;;;;5.89;74.33;100891.00;85668;1332;22504;-79
2022/05/02 04:01:16;;;;;;;;;;;;;;;6.40;75.39;100885.91;85674;1336;22484;-76
2022/05/02 04:03:20;;;;;;;;;;;;;;;7.05;74.98;100884.15;85653;1339;23172;-76
2022/05/02 04:05:25;;;;;;;;;;;;;;;7.64;73.66;100882.83;85666;1339;22454;-77
2022/05/02 04:07:29;;;;;;;;;;;;;;;8.16;72.45;100879.06;85671;1336;22521;-77
2022/05/02 04:09:37;;;;;;;;;;;;;;;8.48;70.94;100878.45;85661;1339;22473;-76
2022/05/02 04:11:43;;;;;;;;;;;;;;;8.65;70.07;100879.12;85653;1336;23102;-83
2022/05/02 04:13:49;;;;;;;;;;;;;;;8.72;68.88;100878.98;85655;1336;23091;-80
2022/05/02 04:15:54;;;;;;;;;;;;;;;8.69;68.41;100878.17;85664;1336;22471;-80
2022/05/02 04:17:58;;;;;;;;;;;;;;;8.71;68.06;100881.42;85577;1339;23159;-79
2022/05/02 04:20:03;;;;;;;;;;;;;;;8.81;67.79;100883.64;85678;1336;22550;-79
2022/05/02 04:22:08;;;;;;;;;;;;;;;8.84;67.51;100884.44;85674;1339;23101;-79
2022/05/02 04:24:14;;;;;;;;;;;;;;;8.89;67.56;100886.42;85666;1338;22509;-80
2022/05/02 04:26:18;;;;;;;;;;;;;;;8.99;67.66;100889.66;85683;1339;22637;-80
2022/05/02 04:28:26;;;;;;;;;;;;;;;9.15;67.62;100893.13;85671;1336;23100;-80
2022/05/02 04:30:31;;;;;;;;;;;;;;;9.32;67.84;100894.45;85677;1339;23102;-81
2022/05/02 04:32:36;;;;;;;;;;;;;;;9.57;67.39;100893.99;85683;1337;23074;-81
2022/05/02 04:34:41;;;;;;;;;;;;;;;9.98;67.14;100890.82;85675;1339;23122;-81
2022/05/02 04:36:45;;;;;;;;;;;;;;;10.61;66.65;100887.50;85667;1339;22511;-81
2022/05/02 04:38:50;;;;;;;;;;;;;;;11.45;66.79;100886.92;85672;1337;23074;-81
2022/05/02 04:40:55;;;;;;;;;;;;;;;12.34;64.89;100886.07;85664;1339;22456;-80
2022/05/02 04:43:00;;;;;;;;;;;;;;;13.03;62.46;100883.63;85679;1337;22512;-81
2022/05/02 04:45:10;;;;;;;;;;;;;;;13.27;60.13;100876.56;85563;1337;22531;-81
2022/05/02 04:47:14;;;;;;;;;;;;;;;13.20;59.06;100878.55;85682;1338;22523;-80
2022/05/02 04:49:19;;;;;;;;;;;;;;;13.51;58.89;100878.34;85684;1336;22570;-80
2022/05/02 04:51:23;;;;;;;;;;;;;;;14.12;57.96;100875.50;85666;1337;23158;-81
2022/05/02 04:53:28;;;;;;;;;;;;;;;14.87;57.00;100870.48;85662;1336;22444;-81
2022/05/02 04:55:35;;;;;;;;;;;;;;;15.73;55.45;100869.05;85480;1340;22474;-82
2022/05/02 04:57:43;;;;;;;;;;;;;;;16.64;53.30;100871.95;85669;1336;22628;-82
2022/05/02 04:59:50;;;;;;;;;;;;;;;17.45;50.30;100868.60;85677;1337;22451;-82
2022/05/02 05:01:56;;;;;;;;;;;;;;;18.17;48.50;100865.17;85682;1338;22668;-82
2022/05/02 05:04:01;;;;;;;;;;;;;;;18.81;46.98;100862.02;83335;1336;3283523;-82
2022/05/02 05:06:06;;;;;;;;;;;;;;;19.53;44.82;100863.85;85662;1336;23367;-82
2022/05/02 05:08:11;;;;;;;;;;;;;;;20.19;43.88;100859.31;85654;1339;22527;-82
2022/05/02 05:10:16;;;;;;;;;;;;;;;20.78;41.58;100858.48;85670;1329;22460;-82
2022/05/02 05:12:30;;;;;;;;;;;;;;;21.11;39.94;100859.55;85670;1339;23132;-80
2022/05/02 05:17:14;;;;;;;;;;;;;;;21.85;37.87;100857.16;85432;1339;23671;-80
2022/05/02 05:19:33;;;;;;;;;;;;;;;22.48;36.92;100856.81;85677;1339;22474;-80
2022/05/02 05:21:49;;;;;;;;;;;;;;;22.90;34.46;100850.85;85509;1336;23228;-80
2022/05/02 05:24:09;;;;;;;;;;;;;;;22.88;34.19;100846.66;85588;1332;22485;-80
2022/05/02 05:26:17;;;;;;;;;;;;;;;23.26;33.60;100849.05;85677;1336;23203;-84
2022/05/02 05:28:30;;;;;;;;;;;;;;;23.58;32.59;100849.75;85675;1336;22445;-84
2022/05/02 05:30:38;;;;;;;;;;;;;;;23.76;31.89;100850.60;85697;1337;22468;-84
2022/05/02 05:32:47;;;;;;;;;;;;;;;23.94;30.50;100844.66;85684;1336;22476;-84
2022/05/02 05:34:55;;;;;;;;;;;;;;;24.07;29.71;100847.14;85677;1336;22484;-84
2022/05/02 05:37:26;;;;;;;;;;;;;;;24.30;29.71;100842.45;85561;1338;22851;-79
2022/05/02 05:39:34;;;;;;;;;;;;;;;24.61;29.00;100842.38;85528;1340;22514;-80
2022/05/02 05:41:44;;;;;;;;;;;;;;;24.78;28.20;100845.48;85541;1339;23126;-84
2022/05/02 05:43:59;;;;;;;;;;;;;;;24.86;26.79;100844.05;85660;1336;23133;-84
2022/05/02 05:46:20;;;;;;;;;;;;;;;24.65;27.03;100842.91;85670;1339;22459;-84
2022/05/02 05:48:31;;;;;;;;;;;;;;;24.79;26.86;100841.52;85531;1340;23144;-85
2022/05/02 05:50:38;;;;;;;;;;;;;;;24.98;26.48;100839.73;85666;1338;23102;-84
2022/05/02 05:52:54;;;;;;;;;;;;;;;25.26;26.75;100838.46;85485;1339;22456;-84
2022/05/02 05:55:05;;;;;;;;;;;;;;;25.66;26.43;100836.51;85658;1336;23144;-84
2022/05/02 05:57:18;;;;;;;;;;;;;;;26.21;26.16;100838.02;85492;1338;22546;-80
2022/05/02 05:59:32;;;;;;;;;;;;;;;26.75;25.13;100832.29;85677;1339;23273;-80
2022/05/02 06:01:48;;;;;;;;;;;;;;;27.00;24.34;100834.05;85566;1338;22548;-85
2022/05/02 06:04:02;;;;;;;;;;;;;;;27.31;24.00;100835.48;85680;1336;22554;-86
2022/05/02 06:06:07;;;;;;;;;;;;;;;27.32;23.33;100835.33;85736;1332;23461;-80
2022/05/02 06:08:14;;;;;;;;;;;;;;;27.32;23.21;100833.76;85670;1338;22531;-80
2022/05/02 06:10:23;;;;;;;;;;;;;;;27.57;23.27;100835.15;85666;1339;22481;-80
2022/05/02 06:12:31;;;;;;;;;;;;;;;27.88;22.92;100829.66;85677;1336;23476;-80
2022/05/02 06:18:27;;;;;;;;;;;;;;;28.47;22.17;100827.98;85653;1339;23070;-80
2022/05/02 06:19:27;;;;;;;;;;;;;;;28.93;21.23;100825.45;85679;1336;22473;-85
2022/05/02 06:21:34;;;;;;;;;;;;;;;29.04;20.44;100825.54;85665;1336;22480;-85
2022/05/02 06:23:41;;;;;;;;;;;;;;;28.89;21.11;100823.23;85660;1338;22462;-86
2022/05/02 06:25:48;;;;;;;;;;;;;;;28.93;20.69;100828.91;85660;1336;22460;-82
2022/05/02 06:27:53;;;;;;;;;;;;;;;29.10;20.37;100826.52;85651;1337;22493;-80
2022/05/02 06:29:58;;;;;;;;;;;;;;;29.29;20.34;100823.85;85628;1336;23142;-79
2022/05/02 06:32:02;;;;;;;;;;;;;;;29.40;20.07;100828.10;85664;1339;22467;-80
2022/05/02 06:34:07;;;;;;;;;;;;;;;29.49;19.35;100830.33;85671;1339;22492;-80
2022/05/02 06:36:29;;;;;;;;;;;;;;;29.55;19.47;100828.98;85666;1336;22480;-80
2022/05/02 06:38:44;;;;;;;;;;;;;;;29.56;18.65;100831.36;85638;1336;23155;-80
2022/05/02 06:40:52;;;;;;;;;;;;;;;29.40;19.31;100828.23;85661;1336;22446;-81
2022/05/02 06:43:03;;;;;;;;;;;;;;;29.67;19.34;100829.98;85653;1336;22506;-80
2022/05/02 06:45:20;;;;;;;;;;;;;;;29.79;18.94;100828.74;85646;1339;22525;-80
2022/05/02 06:47:29;;;;;;;;;;;;;;;30.05;18.81;100826.02;85655;1338;23129;-86
2022/05/02 06:49:34;;;;;;;;;;;;;;;30.27;18.28;100823.89;85663;1339;22529;-86
2022/05/02 06:51:42;;;;;;;;;;;;;;;30.38;18.68;100823.94;85664;1338;22504;-87
2022/05/02 06:54:17;;;;;;;;;;;;;;;30.64;18.47;100816.63;85660;1337;23040;-86
2022/05/02 06:56:29;;;;;;;;;;;;;;;31.07;17.94;100815.73;85653;1336;22570;-85
2022/05/02 06:58:38;;;;;;;;;;;;;;;31.24;17.58;100814.83;85661;1336;23110;-84
2022/05/02 07:00:52;;;;;;;;;;;;;;;31.02;17.95;100809.91;85668;1338;23158;-81
2022/05/02 07:03:28;;;;;;;;;;;;;;;31.26;17.94;100813.48;85671;1336;22453;-84
2022/05/02 07:05:37;;;;;;;;;;;;;;;31.49;17.47;100815.84;85544;1339;22506;-86
2022/05/02 07:07:51;;;;;;;;;;;;;;;31.70;17.28;100814.88;85553;1337;22484;-84
2022/05/02 07:09:58;;;;;;;;;;;;;;;31.99;17.07;100812.20;85591;1337;22461;-84
2022/05/02 07:12:11;;;;;;;;;;;;;;;32.17;17.03;100813.24;85678;1337;23020;-84
2022/05/02 07:14:21;;;;;;;;;;;;;;;32.45;16.44;100817.79;85472;1338;22521;-84
2022/05/02 07:16:30;;;;;;;;;;;;;;;32.15;16.38;100812.58;85663;1339;22543;-84
2022/05/02 07:18:43;;;;;;;;;;;;;;;31.88;16.89;100812.25;85681;1337;22469;-84
2022/05/02 07:21:00;;;;;;;;;;;;;;;31.87;17.04;100818.23;85674;1337;22501;-82
2022/05/02 07:23:17;;;;;;;;;;;;;;;32.14;16.67;100815.61;85671;1339;22538;-84
2022/05/02 07:25:22;;;;;;;;;;;;;;;32.22;16.78;100815.17;85687;1336;22494;-84
2022/05/02 07:27:36;;;;;;;;;;;;;;;32.16;16.84;100820.63;85693;1339;23311;-84
2022/05/02 07:29:43;;;;;;;;;;;;;;;31.53;16.80;100823.05;85698;1339;22614;-84
2022/05/02 07:31:48;;;;;;;;;;;;;;;31.12;17.46;100823.60;85678;1337;23131;-77
2022/05/02 07:33:54;;;;;;;;;;;;;;;30.78;17.14;100826.68;85466;1339;22488;-77
2022/05/02 07:36:01;;;;;;;;;;;;;;;30.65;17.60;100825.08;85677;1339;23140;-78
2022/05/02 07:38:06;;;;;;;;;;;;;;;30.88;17.67;100827.46;85671;1339;23057;-78
2022/05/02 07:40:15;;;;;;;;;;;;;;;31.12;16.94;100828.17;85684;1336;22424;-78
2022/05/02 07:42:24;;;;;;;;;;;;;;;31.10;17.79;100830.47;85694;1339;22473;-84
2022/05/02 07:44:34;;;;;;;;;;;;;;;31.53;17.21;100829.56;85537;1340;22492;-84
2022/05/02 07:46:41;;;;;;;;;;;;;;;31.77;16.95;100831.52;85692;1336;22545;-77
2022/05/02 07:48:52;;;;;;;;;;;;;;;31.91;16.99;100827.66;85691;1336;23093;-77
2022/05/02 07:50:57;;;;;;;;;;;;;;;31.79;16.60;100827.48;85667;1339;23172;-77
2022/05/02 07:53:03;;;;;;;;;;;;;;;31.77;17.42;100821.91;85508;1338;23157;-78
2022/05/02 07:55:11;;;;;;;;;;;;;;;31.89;17.29;100817.45;85473;1339;22508;-78
2022/05/02 07:57:20;;;;;;;;;;;;;;;31.95;16.83;100819.39;85550;1333;23039;-77
2022/05/02 07:59:31;;;;;;;;;;;;;;;32.26;17.36;100813.44;85692;1340;23152;-77
2022/05/02 08:01:54;;;;;;;;;;;;;;;32.59;16.52;100819.61;85701;1336;23031;-77
2022/05/02 08:04:01;;;;;;;;;;;;;;;32.27;16.20;100812.58;85617;1340;23246;-77
2022/05/02 08:06:15;;;;;;;;;;;;;;;32.24;16.78;100815.45;85652;1336;22461;-84
2022/05/02 08:08:24;;;;;;;;;;;;;;;32.56;16.51;100816.95;85548;1339;22997;-84
2022/05/02 08:10:45;;;;;;;;;;;;;;;32.55;16.36;100812.02;85717;1337;23309;-84
2022/05/02 08:12:54;;;;;;;;;;;;;;;32.52;16.23;100811.02;85711;1336;23185;-77
2022/05/02 08:15:03;;;;;;;;;;;;;;;32.32;15.94;100808.63;85706;1339;22692;-77
2022/05/02 08:17:27;;;;;;;;;;;;;;;31.84;16.14;100810.10;85695;1337;23155;-77
2022/05/02 08:19:39;;;;;;;;;;;;;;;31.42;16.70;100806.70;85707;1340;22502;-72
2022/05/02 08:21:45;;;;;;;;;;;;;;;31.48;17.15;100808.84;85705;1339;23097;-86
2022/05/02 08:29:23;;;;;;;;;;;;;;;31.36;16.93;100803.09;85575;1338;22524;-86
2022/05/02 08:31:50;;;;;;;;;;;;;;;31.15;17.70;100800.58;85710;1338;22585;-72
2022/05/02 08:33:56;;;;;;;;;;;;;;;31.52;17.76;100801.34;85695;1339;22425;-72
2022/05/02 08:36:05;;;;;;;;;;;;;;;31.79;17.07;100798.19;85688;1336;22585;-73
2022/05/02 08:38:27;;;;;;;;;;;;;;;31.84;16.70;100797.09;85689;1340;23080;-73
2022/05/02 08:40:50;;;;;;;;;;;;;;;31.92;17.04;100793.33;85694;1336;23222;-78
2022/05/02 08:43:20;;;;;;;;;;;;;;;31.94;16.86;100791.94;85689;1340;23127;-80
2022/05/02 08:45:49;;;;;;;;;;;;;;;32.15;16.82;100789.42;85697;1336;22597;-79
2022/05/02 08:48:21;;;;;;;;;;;;;;;32.26;16.39;100786.35;85696;1338;23038;-86
2022/05/02 08:50:57;;;;;;;;;;;;;;;32.56;16.59;100781.77;85691;1336;22479;-87
2022/05/02 08:53:23;;;;;;;;;;;;;;;32.88;17.50;100777.60;85433;1337;22554;-79
2022/05/02 08:55:54;;;;;;;;;;;;;;;33.19;16.44;100774.95;85687;1336;22713;-78
2022/05/02 08:58:24;;;;;;;;;;;;;;;33.06;16.80;100770.90;85705;1338;23060;-85
2022/05/02 09:00:31;;;;;;;;;;;;;;;32.98;16.58;100768.11;85700;1336;22441;-86
2022/05/02 09:03:06;;;;;;;;;;;;;;;32.90;17.27;100771.48;85710;1340;23140;-86
2022/05/02 09:05:48;;;;;;;;;;;;;;;33.42;16.81;100767.48;85707;1336;23180;-85
2022/05/02 09:08:13;;;;;;;;;;;;;;;33.73;16.06;100761.63;85640;1340;22631;-78
2022/05/02 09:10:23;;;;;;;;;;;;;;;33.85;16.54;100763.79;85701;1339;22481;-79
2022/05/02 09:12:40;;;;;;;;;;;;;;;33.82;15.33;100762.23;85716;1339;23187;-85
2022/05/02 09:15:20;;;;;;;;;;;;;;;33.51;15.58;100759.99;85727;1336;22616;-88
2022/05/02 09:18:05;;;;;;;;;;;;;;;33.33;16.02;100755.48;85130;1342;23206;-73
2022/05/02 09:20:43;;;;;;;;;;;;;;;33.19;16.08;100757.65;85535;1339;22549;-74
2022/05/02 09:23:11;;;;;;;;;;;;;;;32.78;16.21;100753.94;85529;1341;23198;-73
2022/05/02 09:25:27;;;;;;;;;;;;;;;32.32;16.49;100752.06;85532;1338;22523;-73
2022/05/02 09:27:55;;;;;;;;;;;;;;;32.19;16.66;100751.11;85575;1339;22502;-91
2022/05/02 09:30:21;;;;;;;;;;;;;;;32.01;17.00;100750.67;85555;1337;22463;-90
2022/05/02 09:32:38;;;;;;;;;;;;;;;31.56;16.29;100751.70;85507;1339;22548;-73
2022/05/02 09:34:46;;;;;;;;;;;;;;;30.80;17.19;100745.71;85694;1336;23220;-73
2022/05/02 09:36:59;;;;;;;;;;;;;;;30.34;17.25;100747.12;85559;1334;22682;-73
2022/05/02 09:39:13;;;;;;;;;;;;;;;30.02;18.24;100750.84;85539;1339;22539;-73
2022/05/02 09:41:27;;;;;;;;;;;;;;;30.02;18.99;100745.76;85557;1339;22492;-91
2022/05/02 09:51:18;;;;;;;;;;;;;;;28.70;19.89;100734.83;85691;1336;23278;-90
2022/05/02 09:53:29;;;;;;;;;;;;;;;28.55;19.71;100729.02;85697;1339;22506;-88
2022/05/02 09:58:32;;;;;;;;;;;;;;;28.12;19.28;100725.96;85677;1340;23181;-72
2022/05/02 10:03:13;;;;;;;;;;;;;;;27.20;20.20;100727.98;85676;1338;23739;-89
2022/05/02 10:05:22;;;;;;;;;;;;;;;26.89;20.75;100723.66;85694;1336;23202;-86
2022/05/02 10:07:30;;;;;;;;;;;;;;;26.47;21.19;100719.84;85536;1339;23202;-89
2022/05/02 10:10:05;;;;;;;;;;;;;;;26.05;21.30;100721.45;85671;1336;23223;-87
2022/05/02 10:12:16;;;;;;;;;;;;;;;25.50;22.11;100724.06;85539;1339;22472;-80
2022/05/02 10:14:40;;;;;;;;;;;;;;;25.09;22.89;100727.73;85652;1334;22460;-82
2022/05/02 10:16:47;;;;;;;;;;;;;;;24.63;23.42;100722.54;85671;1337;22498;-85
2022/05/02 10:19:01;;;;;;;;;;;;;;;24.27;23.67;100718.40;85667;1336;23024;-82
2022/05/02 10:21:11;;;;;;;;;;;;;;;23.99;24.23;100715.64;85508;1340;22524;-74
2022/05/02 10:23:25;;;;;;;;;;;;;;;23.81;24.57;100710.66;85404;1338;23204;-73
2022/05/02 10:25:36;;;;;;;;;;;;;;;23.67;24.73;100709.16;85674;1337;23158;-73
2022/05/02 10:27:47;;;;;;;;;;;;;;;23.54;24.79;100707.76;85474;1339;23196;-91
2022/05/02 10:30:12;;;;;;;;;;;;;;;23.46;25.26;100709.91;85625;1336;22465;-75
2022/05/02 10:32:24;;;;;;;;;;;;;;;23.20;25.23;100704.51;85448;1338;23069;-87
2022/05/02 10:34:29;;;;;;;;;;;;;;;22.97;25.68;100703.94;85646;1338;23142;-87
2022/05/02 10:36:39;;;;;;;;;;;;;;;22.80;26.39;100707.13;85652;1337;22526;-73
2022/05/02 10:38:52;;;;;;;;;;;;;;;22.56;26.38;100698.29;85632;1340;22485;-77
2022/05/02 10:41:01;;;;;;;;;;;;;;;22.34;26.48;100702.41;85441;1339;23274;-77
2022/05/02 10:43:10;;;;;;;;;;;;;;;22.16;26.74;100699.67;85656;1337;22688;-77
2022/05/02 10:45:15;;;;;;;;;;;;;;;22.17;26.64;100693.02;85644;1336;22564;-78
2022/05/02 10:47:21;;;;;;;;;;;;;;;22.45;26.32;100692.80;85450;1341;22550;-78
2022/05/02 10:49:29;;;;;;;;;;;;;;;22.78;26.48;100684.53;85655;1332;22467;-77
2022/05/02 10:51:46;;;;;;;;;;;;;;;23.00;25.54;100679.86;85657;1337;23202;-84
2022/05/02 10:54:08;;;;;;;;;;;;;;;23.12;25.15;100677.94;85628;1336;22449;-84
2022/05/02 10:56:23;;;;;;;;;;;;;;;22.97;24.88;100676.20;85584;1339;22490;-78
2022/05/02 10:58:29;;;;;;;;;;;;;;;22.73;25.45;100676.48;85692;1332;22527;-79
2022/05/02 11:00:34;;;;;;;;;;;;;;;22.60;25.99;100681.59;85645;1336;23137;-73
2022/05/02 11:03:01;;;;;;;;;;;;;;;22.43;26.35;100681.40;85671;1339;23134;-78
2022/05/02 11:05:13;;;;;;;;;;;;;;;22.19;26.42;100680.60;85303;1339;22545;-78
2022/05/02 11:07:24;;;;;;;;;;;;;;;22.00;27.16;100680.99;85475;1339;23232;-83
2022/05/02 11:09:36;;;;;;;;;;;;;;;21.86;27.05;100677.38;85572;1339;23045;-82
2022/05/02 11:11:48;;;;;;;;;;;;;;;21.74;26.57;100676.01;85564;1337;22451;-79
2022/05/02 11:14:01;;;;;;;;;;;;;;;21.67;26.74;100674.26;85642;1339;23160;-80
2022/05/02 11:16:17;;;;;;;;;;;;;;;21.56;27.28;100672.66;85662;1336;22419;-77
2022/05/02 11:20:52;;;;;;;;;;;;;;;21.24;27.22;100679.05;85576;1340;23138;-77
2022/05/02 11:23:14;;;;;;;;;;;;;;;21.11;27.05;100675.09;85680;1337;23164;-76
2022/05/02 11:25:20;;;;;;;;;;;;;;;21.05;27.07;100677.16;85652;1336;23007;-78
2022/05/02 11:27:47;;;;;;;;;;;;;;;20.98;27.19;100674.98;85671;1336;22529;-81
2022/05/02 11:30:02;;;;;;;;;;;;;;;20.90;27.57;100676.02;85679;1333;22506;-82
2022/05/02 11:32:17;;;;;;;;;;;;;;;20.83;28.29;100674.21;85679;1336;22498;-79
2022/05/02 11:34:41;;;;;;;;;;;;;;;20.73;28.52;100674.05;85673;1336;22455;-78
2022/05/02 11:36:58;;;;;;;;;;;;;;;20.70;29.11;100673.30;85680;1339;23168;-85
2022/05/02 11:39:09;;;;;;;;;;;;;;;20.67;28.89;100670.09;85689;1336;23158;-78
2022/05/02 11:41:17;;;;;;;;;;;;;;;20.73;29.72;100670.18;85576;1339;22614;-79
2022/05/02 11:43:26;;;;;;;;;;;;;;;20.94;29.98;100666.81;85673;1339;23245;-79
2022/05/02 11:45:44;;;;;;;;;;;;;;;21.29;30.04;100659.63;85684;1336;23158;-71